AAL158 KILM-KATL
Flight info
| Callsign | AAL158 |
|---|---|
| Flight time | 1h 9m |
| Altitude | 32000 |
| Route | KAATT Q172 YUTEE SKWKR JJEDI3 |
| Aircraft | B738/M-VGDW/C |
Departure
| Time | 2026-05-07 18:34 |
|---|---|
| Airport | Wilmington International Airport (KILM) |
Arrival
| Time | 2026-05-07 19:44 |
|---|---|
| Airport | Hartsfield Jackson Atlanta International Airport (KATL) |
| Time | Latitude | Longitude | Altitude | Speed | Heading |
|---|---|---|---|---|---|
| 2026-05-07 17:59 | 34.26700 | -77.90854 | 32 ft | 0 kts | 248° |
| 2026-05-07 18:04 | 34.26700 | -77.90852 | 32 ft | 1 kts | 249° |
| 2026-05-07 18:05 | 34.26706 | -77.90836 | 32 ft | 2 kts | 248° |
| 2026-05-07 18:05 | 34.26711 | -77.90820 | 31 ft | 0 kts | 249° |
| 2026-05-07 18:05 | 34.26715 | -77.90809 | 31 ft | 2 kts | 223° |
| 2026-05-07 18:05 | 34.26728 | -77.90801 | 31 ft | 2 kts | 185° |
| 2026-05-07 18:06 | 34.26738 | -77.90801 | 31 ft | 1 kts | 162° |
| 2026-05-07 18:06 | 34.26745 | -77.90804 | 31 ft | 0 kts | 160° |
| 2026-05-07 18:11 | 34.26743 | -77.90803 | 31 ft | 1 kts | 161° |
| 2026-05-07 18:11 | 34.26720 | -77.90794 | 31 ft | 8 kts | 160° |
| 2026-05-07 18:11 | 34.26649 | -77.90721 | 29 ft | 11 kts | 70° |
| 2026-05-07 18:11 | 34.26701 | -77.90643 | 29 ft | 13 kts | 48° |
| 2026-05-07 18:12 | 34.26775 | -77.90544 | 31 ft | 17 kts | 48° |
| 2026-05-07 18:12 | 34.26851 | -77.90434 | 32 ft | 18 kts | 52° |
| 2026-05-07 18:12 | 34.26941 | -77.90294 | 31 ft | 23 kts | 51° |
| 2026-05-07 18:12 | 34.27054 | -77.90127 | 31 ft | 26 kts | 50° |
| 2026-05-07 18:13 | 34.27171 | -77.89953 | 28 ft | 26 kts | 52° |
| 2026-05-07 18:13 | 34.27287 | -77.89794 | 25 ft | 25 kts | 47° |
| 2026-05-07 18:13 | 34.27414 | -77.89681 | 25 ft | 21 kts | 18° |
| 2026-05-07 18:13 | 34.27517 | -77.89581 | 25 ft | 17 kts | 47° |
| 2026-05-07 18:14 | 34.27593 | -77.89480 | 25 ft | 15 kts | 48° |
| 2026-05-07 18:14 | 34.27665 | -77.89382 | 23 ft | 15 kts | 47° |
| 2026-05-07 18:14 | 34.27739 | -77.89284 | 22 ft | 15 kts | 47° |
| 2026-05-07 18:14 | 34.27745 | -77.89187 | 22 ft | 11 kts | 125° |
| 2026-05-07 18:15 | 34.27718 | -77.89152 | 22 ft | 0 kts | 137° |
| 2026-05-07 18:33 | 34.27714 | -77.89148 | 22 ft | 4 kts | 137° |
| 2026-05-07 18:33 | 34.27644 | -77.89099 | 22 ft | 18 kts | 194° |
| 2026-05-07 18:33 | 34.27514 | -77.89233 | 22 ft | 33 kts | 227° |
| 2026-05-07 18:34 | 34.27206 | -77.89654 | 25 ft | 103 kts | 229° |
| 2026-05-07 18:34 | 34.26576 | -77.90514 | 40 ft | 164 kts | 229° |
| 2026-05-07 18:34 | 34.25819 | -77.91618 | 568 ft | 176 kts | 233° |
| 2026-05-07 18:34 | 34.25197 | -77.92696 | 1760 ft | 151 kts | 249° |
| 2026-05-07 18:35 | 34.25205 | -77.93969 | 2213 ft | 173 kts | 290° |
| 2026-05-07 18:35 | 34.25921 | -77.95235 | 2818 ft | 184 kts | 295° |
| 2026-05-07 18:35 | 34.26324 | -77.96627 | 3369 ft | 179 kts | 261° |
| 2026-05-07 18:35 | 34.25925 | -77.98096 | 3853 ft | 190 kts | 245° |
| 2026-05-07 18:36 | 34.25448 | -77.99593 | 4432 ft | 199 kts | 256° |
| 2026-05-07 18:36 | 34.25330 | -78.01343 | 4817 ft | 220 kts | 269° |
| 2026-05-07 18:36 | 34.25417 | -78.03239 | 5271 ft | 234 kts | 270° |
| 2026-05-07 18:36 | 34.25484 | -78.05228 | 5959 ft | 239 kts | 269° |
| 2026-05-07 18:37 | 34.25496 | -78.07228 | 6702 ft | 241 kts | 267° |
| 2026-05-07 18:37 | 34.25478 | -78.09232 | 7491 ft | 241 kts | 267° |
| 2026-05-07 18:37 | 34.25488 | -78.11237 | 8204 ft | 244 kts | 269° |
| 2026-05-07 18:37 | 34.25534 | -78.13296 | 8765 ft | 251 kts | 269° |
| 2026-05-07 18:38 | 34.25579 | -78.15411 | 9536 ft | 251 kts | 269° |
| 2026-05-07 18:38 | 34.25599 | -78.17520 | 10193 ft | 254 kts | 268° |
| 2026-05-07 18:38 | 34.25598 | -78.19698 | 10533 ft | 268 kts | 268° |
| 2026-05-07 18:38 | 34.25585 | -78.22032 | 10740 ft | 287 kts | 269° |
| 2026-05-07 18:39 | 34.25575 | -78.24477 | 10973 ft | 302 kts | 268° |
| 2026-05-07 18:39 | 34.25585 | -78.27052 | 11398 ft | 311 kts | 270° |
| 2026-05-07 18:39 | 34.25636 | -78.29678 | 12061 ft | 311 kts | 270° |
| 2026-05-07 18:39 | 34.25702 | -78.32272 | 12738 ft | 310 kts | 270° |
| 2026-05-07 18:40 | 34.25746 | -78.34851 | 13314 ft | 312 kts | 270° |
| 2026-05-07 18:40 | 34.25778 | -78.37484 | 13852 ft | 315 kts | 270° |
| 2026-05-07 18:40 | 34.25805 | -78.40160 | 14322 ft | 319 kts | 270° |
| 2026-05-07 18:40 | 34.25824 | -78.42806 | 14907 ft | 320 kts | 270° |
| 2026-05-07 18:41 | 34.25835 | -78.45483 | 15536 ft | 318 kts | 270° |
| 2026-05-07 18:41 | 34.25853 | -78.48147 | 16130 ft | 318 kts | 270° |
| 2026-05-07 18:41 | 34.25886 | -78.50858 | 16413 ft | 326 kts | 270° |
| 2026-05-07 18:41 | 34.25905 | -78.53574 | 16893 ft | 328 kts | 270° |
| 2026-05-07 18:42 | 34.25916 | -78.56335 | 17332 ft | 330 kts | 270° |
| 2026-05-07 18:42 | 34.25919 | -78.59119 | 17793 ft | 331 kts | 270° |
| 2026-05-07 18:42 | 34.25935 | -78.61870 | 18304 ft | 331 kts | 270° |
| 2026-05-07 18:42 | 34.25970 | -78.64659 | 18795 ft | 331 kts | 271° |
| 2026-05-07 18:43 | 34.26001 | -78.67413 | 19172 ft | 334 kts | 269° |
| 2026-05-07 18:43 | 34.25999 | -78.70242 | 19510 ft | 338 kts | 269° |
| 2026-05-07 18:43 | 34.25965 | -78.73126 | 19852 ft | 342 kts | 268° |
| 2026-05-07 18:43 | 34.25924 | -78.75977 | 20185 ft | 346 kts | 269° |
| 2026-05-07 18:44 | 34.25895 | -78.78927 | 20509 ft | 350 kts | 269° |
| 2026-05-07 18:44 | 34.25880 | -78.81828 | 20929 ft | 350 kts | 269° |
| 2026-05-07 18:44 | 34.25873 | -78.84789 | 21364 ft | 350 kts | 269° |
| 2026-05-07 18:44 | 34.25878 | -78.87714 | 21626 ft | 355 kts | 269° |
| 2026-05-07 18:45 | 34.25888 | -78.90695 | 22010 ft | 356 kts | 269° |
| 2026-05-07 18:45 | 34.25894 | -78.93677 | 22423 ft | 355 kts | 269° |
| 2026-05-07 18:45 | 34.25899 | -78.96686 | 22662 ft | 360 kts | 269° |
| 2026-05-07 18:45 | 34.25893 | -78.99695 | 22991 ft | 362 kts | 269° |
| 2026-05-07 18:46 | 34.25891 | -79.02755 | 23289 ft | 365 kts | 269° |
| 2026-05-07 18:46 | 34.25908 | -79.05801 | 23589 ft | 367 kts | 270° |
| 2026-05-07 18:46 | 34.25942 | -79.08872 | 24125 ft | 363 kts | 270° |
| 2026-05-07 18:46 | 34.25973 | -79.11879 | 24527 ft | 362 kts | 270° |
| 2026-05-07 18:47 | 34.26008 | -79.14925 | 24871 ft | 363 kts | 269° |
| 2026-05-07 18:47 | 34.25980 | -79.17952 | 25275 ft | 362 kts | 266° |
| 2026-05-07 18:47 | 34.25702 | -79.20976 | 25497 ft | 365 kts | 261° |
| 2026-05-07 18:47 | 34.25224 | -79.23986 | 25740 ft | 368 kts | 259° |
| 2026-05-07 18:48 | 34.24675 | -79.27022 | 26071 ft | 368 kts | 259° |
| 2026-05-07 18:48 | 34.24147 | -79.30012 | 26402 ft | 368 kts | 259° |
| 2026-05-07 18:48 | 34.23622 | -79.33035 | 26696 ft | 368 kts | 260° |
| 2026-05-07 18:48 | 34.23111 | -79.36062 | 27042 ft | 367 kts | 260° |
| 2026-05-07 18:49 | 34.22618 | -79.39117 | 27265 ft | 369 kts | 260° |
| 2026-05-07 18:49 | 34.22132 | -79.42129 | 27426 ft | 372 kts | 260° |
| 2026-05-07 18:49 | 34.21621 | -79.45225 | 27732 ft | 372 kts | 260° |
| 2026-05-07 18:49 | 34.21118 | -79.48297 | 27968 ft | 373 kts | 260° |
| 2026-05-07 18:50 | 34.20622 | -79.51354 | 28275 ft | 372 kts | 261° |
| 2026-05-07 18:50 | 34.20134 | -79.54403 | 28559 ft | 372 kts | 260° |
| 2026-05-07 18:50 | 34.19640 | -79.57472 | 28739 ft | 374 kts | 261° |
| 2026-05-07 18:50 | 34.19154 | -79.60514 | 28998 ft | 373 kts | 261° |
| 2026-05-07 18:51 | 34.18656 | -79.63598 | 29384 ft | 370 kts | 260° |
| 2026-05-07 18:51 | 34.18162 | -79.66611 | 29807 ft | 366 kts | 260° |
| 2026-05-07 18:51 | 34.17670 | -79.69603 | 30082 ft | 366 kts | 260° |
| 2026-05-07 18:51 | 34.17184 | -79.72633 | 30386 ft | 365 kts | 260° |
| 2026-05-07 18:52 | 34.16723 | -79.75593 | 30745 ft | 362 kts | 260° |
| 2026-05-07 18:52 | 34.16247 | -79.78558 | 31116 ft | 359 kts | 259° |
| 2026-05-07 18:52 | 34.15743 | -79.81509 | 31465 ft | 356 kts | 258° |
| 2026-05-07 18:52 | 34.15237 | -79.84409 | 31809 ft | 352 kts | 258° |
| 2026-05-07 18:53 | 34.14759 | -79.87304 | 31852 ft | 353 kts | 259° |
| 2026-05-07 18:53 | 34.13890 | -79.93173 | 31849 ft | 355 kts | 260° |
| 2026-05-07 18:54 | 34.13042 | -79.99009 | 31850 ft | 356 kts | 260° |
| 2026-05-07 18:54 | 34.12082 | -80.04915 | 31853 ft | 358 kts | 259° |
| 2026-05-07 18:55 | 34.11118 | -80.10793 | 31845 ft | 359 kts | 259° |
| 2026-05-07 18:55 | 34.10183 | -80.16701 | 31854 ft | 359 kts | 260° |
| 2026-05-07 18:56 | 34.09190 | -80.22614 | 31854 ft | 360 kts | 259° |
| 2026-05-07 18:56 | 34.08197 | -80.28498 | 31852 ft | 361 kts | 259° |
| 2026-05-07 18:57 | 34.07200 | -80.34454 | 31854 ft | 361 kts | 258° |
| 2026-05-07 18:57 | 34.06193 | -80.40344 | 31857 ft | 361 kts | 259° |
| 2026-05-07 18:58 | 34.05189 | -80.46298 | 31857 ft | 362 kts | 258° |
| 2026-05-07 18:58 | 34.04083 | -80.52203 | 31855 ft | 362 kts | 258° |
| 2026-05-07 18:59 | 34.02985 | -80.58127 | 31857 ft | 362 kts | 258° |
| 2026-05-07 18:59 | 34.01891 | -80.64053 | 31855 ft | 362 kts | 259° |
| 2026-05-07 19:00 | 34.00871 | -80.70023 | 31854 ft | 363 kts | 258° |
| 2026-05-07 19:00 | 33.99891 | -80.75969 | 31852 ft | 364 kts | 258° |
| 2026-05-07 19:01 | 33.98520 | -80.81849 | 31850 ft | 366 kts | 253° |
| 2026-05-07 19:01 | 33.96881 | -80.87649 | 31847 ft | 367 kts | 253° |
| 2026-05-07 19:02 | 33.95276 | -80.93481 | 31847 ft | 368 kts | 254° |
| 2026-05-07 19:02 | 33.93724 | -80.99351 | 31855 ft | 368 kts | 254° |
| 2026-05-07 19:03 | 33.92205 | -81.05250 | 31856 ft | 369 kts | 255° |
| 2026-05-07 19:03 | 33.90647 | -81.11119 | 31864 ft | 369 kts | 253° |
| 2026-05-07 19:04 | 33.89074 | -81.17040 | 31866 ft | 370 kts | 255° |
| 2026-05-07 19:04 | 33.87519 | -81.22912 | 31864 ft | 370 kts | 254° |
| 2026-05-07 19:05 | 33.85999 | -81.28865 | 31860 ft | 371 kts | 255° |
| 2026-05-07 19:05 | 33.84446 | -81.34767 | 31865 ft | 371 kts | 254° |
| 2026-05-07 19:06 | 33.82875 | -81.40655 | 31860 ft | 371 kts | 254° |
| 2026-05-07 19:06 | 33.80544 | -81.49513 | 31862 ft | 370 kts | 255° |
| 2026-05-07 19:07 | 33.78976 | -81.55399 | 31872 ft | 372 kts | 249° |
| 2026-05-07 19:07 | 33.76268 | -81.60779 | 31876 ft | 377 kts | 240° |
| 2026-05-07 19:08 | 33.73143 | -81.65827 | 31881 ft | 378 kts | 238° |
| 2026-05-07 19:08 | 33.70040 | -81.70912 | 31890 ft | 378 kts | 239° |
| 2026-05-07 19:09 | 33.67046 | -81.76109 | 31887 ft | 378 kts | 241° |
| 2026-05-07 19:09 | 33.64128 | -81.81386 | 31889 ft | 379 kts | 241° |
| 2026-05-07 19:10 | 33.61266 | -81.86708 | 31880 ft | 378 kts | 244° |
| 2026-05-07 19:10 | 33.59171 | -81.92428 | 31885 ft | 376 kts | 252° |
| 2026-05-07 19:11 | 33.57523 | -81.98386 | 31886 ft | 376 kts | 253° |
| 2026-05-07 19:11 | 33.55853 | -82.04312 | 31880 ft | 377 kts | 253° |
| 2026-05-07 19:12 | 33.54107 | -82.10232 | 31884 ft | 378 kts | 252° |
| 2026-05-07 19:12 | 33.52316 | -82.16183 | 31884 ft | 378 kts | 252° |
| 2026-05-07 19:13 | 33.50565 | -82.22115 | 31783 ft | 380 kts | 253° |
| 2026-05-07 19:13 | 33.49688 | -82.25136 | 31490 ft | 385 kts | 252° |
| 2026-05-07 19:13 | 33.48802 | -82.28107 | 31211 ft | 374 kts | 252° |
| 2026-05-07 19:14 | 33.47925 | -82.30979 | 30956 ft | 355 kts | 252° |
| 2026-05-07 19:14 | 33.47103 | -82.33707 | 30674 ft | 347 kts | 253° |
| 2026-05-07 19:14 | 33.46291 | -82.36427 | 30426 ft | 347 kts | 253° |
| 2026-05-07 19:14 | 33.45458 | -82.39143 | 30180 ft | 346 kts | 253° |
| 2026-05-07 19:15 | 33.44621 | -82.41831 | 29936 ft | 346 kts | 252° |
| 2026-05-07 19:15 | 33.43773 | -82.44519 | 29690 ft | 345 kts | 253° |
| 2026-05-07 19:15 | 33.42933 | -82.47172 | 29445 ft | 345 kts | 252° |
| 2026-05-07 19:15 | 33.42087 | -82.49887 | 29201 ft | 344 kts | 252° |
| 2026-05-07 19:16 | 33.41257 | -82.52563 | 28949 ft | 344 kts | 253° |
| 2026-05-07 19:16 | 33.40443 | -82.55215 | 28707 ft | 344 kts | 253° |
| 2026-05-07 19:16 | 33.39611 | -82.57924 | 28455 ft | 343 kts | 253° |
| 2026-05-07 19:16 | 33.38786 | -82.60605 | 28230 ft | 349 kts | 253° |
| 2026-05-07 19:17 | 33.37946 | -82.63345 | 27968 ft | 356 kts | 253° |
| 2026-05-07 19:17 | 33.37092 | -82.66144 | 27715 ft | 363 kts | 252° |
| 2026-05-07 19:17 | 33.36210 | -82.68984 | 27455 ft | 366 kts | 252° |
| 2026-05-07 19:17 | 33.35312 | -82.71844 | 27202 ft | 365 kts | 252° |
| 2026-05-07 19:18 | 33.34665 | -82.73934 | 27016 ft | 361 kts | 252° |
| 2026-05-07 19:18 | 33.33808 | -82.76743 | 26762 ft | 358 kts | 253° |
| 2026-05-07 19:18 | 33.32960 | -82.79518 | 26503 ft | 357 kts | 253° |
| 2026-05-07 19:18 | 33.32128 | -82.82300 | 26254 ft | 356 kts | 253° |
| 2026-05-07 19:19 | 33.31303 | -82.85070 | 26001 ft | 356 kts | 253° |
| 2026-05-07 19:19 | 33.30582 | -82.87905 | 25742 ft | 353 kts | 258° |
| 2026-05-07 19:19 | 33.30131 | -82.90743 | 25497 ft | 352 kts | 262° |
| 2026-05-07 19:19 | 33.29825 | -82.93662 | 25245 ft | 351 kts | 263° |
| 2026-05-07 19:20 | 33.29556 | -82.96530 | 24974 ft | 347 kts | 263° |
| 2026-05-07 19:20 | 33.29275 | -82.99334 | 24594 ft | 339 kts | 263° |
| 2026-05-07 19:20 | 33.28978 | -83.02102 | 24098 ft | 334 kts | 263° |
| 2026-05-07 19:20 | 33.28667 | -83.04834 | 23589 ft | 329 kts | 262° |
| 2026-05-07 19:21 | 33.28349 | -83.07512 | 23074 ft | 325 kts | 262° |
| 2026-05-07 19:21 | 33.28033 | -83.10158 | 22566 ft | 321 kts | 262° |
| 2026-05-07 19:21 | 33.27721 | -83.12766 | 22077 ft | 317 kts | 262° |
| 2026-05-07 19:21 | 33.27408 | -83.15361 | 21575 ft | 314 kts | 262° |
| 2026-05-07 19:22 | 33.27093 | -83.17923 | 21076 ft | 310 kts | 262° |
| 2026-05-07 19:22 | 33.26778 | -83.20444 | 20579 ft | 307 kts | 262° |
| 2026-05-07 19:22 | 33.26457 | -83.22943 | 20081 ft | 304 kts | 262° |
| 2026-05-07 19:22 | 33.26126 | -83.25410 | 19588 ft | 300 kts | 261° |
| 2026-05-07 19:23 | 33.25787 | -83.27845 | 19099 ft | 297 kts | 262° |
| 2026-05-07 19:23 | 33.25457 | -83.30236 | 18613 ft | 293 kts | 262° |
| 2026-05-07 19:23 | 33.25140 | -83.32642 | 18132 ft | 294 kts | 262° |
| 2026-05-07 19:23 | 33.24858 | -83.35101 | 17897 ft | 301 kts | 264° |
| 2026-05-07 19:24 | 33.24604 | -83.37606 | 17741 ft | 307 kts | 264° |
| 2026-05-07 19:24 | 33.24348 | -83.40140 | 17186 ft | 313 kts | 263° |
| 2026-05-07 19:24 | 33.24065 | -83.42687 | 16663 ft | 301 kts | 263° |
| 2026-05-07 19:24 | 33.23766 | -83.45057 | 16490 ft | 279 kts | 262° |
| 2026-05-07 19:25 | 33.23461 | -83.47266 | 16158 ft | 265 kts | 262° |
| 2026-05-07 19:25 | 33.23151 | -83.49429 | 15717 ft | 268 kts | 262° |
| 2026-05-07 19:25 | 33.22845 | -83.51705 | 15284 ft | 285 kts | 263° |
| 2026-05-07 19:25 | 33.22564 | -83.54050 | 14833 ft | 288 kts | 263° |
| 2026-05-07 19:26 | 33.22295 | -83.56363 | 14380 ft | 277 kts | 263° |
| 2026-05-07 19:26 | 33.22028 | -83.58584 | 13960 ft | 265 kts | 263° |
| 2026-05-07 19:26 | 33.21755 | -83.60731 | 13557 ft | 263 kts | 263° |
| 2026-05-07 19:26 | 33.21461 | -83.62965 | 13154 ft | 283 kts | 263° |
| 2026-05-07 19:27 | 33.21156 | -83.65292 | 12679 ft | 285 kts | 263° |
| 2026-05-07 19:27 | 33.20846 | -83.67613 | 12237 ft | 281 kts | 262° |
| 2026-05-07 19:27 | 33.20553 | -83.69885 | 11951 ft | 272 kts | 263° |
| 2026-05-07 19:27 | 33.20290 | -83.72073 | 11779 ft | 261 kts | 264° |
| 2026-05-07 19:28 | 33.20049 | -83.74151 | 11615 ft | 251 kts | 263° |
| 2026-05-07 19:28 | 33.19807 | -83.76210 | 11306 ft | 246 kts | 264° |
| 2026-05-07 19:28 | 33.19564 | -83.78198 | 10976 ft | 243 kts | 263° |
| 2026-05-07 19:28 | 33.19338 | -83.80191 | 10657 ft | 239 kts | 266° |
| 2026-05-07 19:29 | 33.19459 | -83.82124 | 10341 ft | 237 kts | 285° |
| 2026-05-07 19:29 | 33.20248 | -83.83850 | 10057 ft | 240 kts | 305° |
| 2026-05-07 19:29 | 33.21439 | -83.85220 | 9904 ft | 234 kts | 311° |
| 2026-05-07 19:29 | 33.22622 | -83.86492 | 9753 ft | 231 kts | 309° |
| 2026-05-07 19:30 | 33.23826 | -83.87925 | 9391 ft | 249 kts | 308° |
| 2026-05-07 19:30 | 33.25019 | -83.89384 | 9027 ft | 248 kts | 308° |
| 2026-05-07 19:30 | 33.26232 | -83.90838 | 8715 ft | 245 kts | 309° |
| 2026-05-07 19:30 | 33.27449 | -83.92269 | 8407 ft | 242 kts | 309° |
| 2026-05-07 19:31 | 33.28639 | -83.93671 | 8106 ft | 239 kts | 309° |
| 2026-05-07 19:31 | 33.29808 | -83.95057 | 7955 ft | 241 kts | 309° |
| 2026-05-07 19:31 | 33.31015 | -83.96498 | 7936 ft | 244 kts | 309° |
| 2026-05-07 19:31 | 33.32206 | -83.97940 | 7936 ft | 244 kts | 309° |
| 2026-05-07 19:32 | 33.33406 | -83.99397 | 7934 ft | 244 kts | 308° |
| 2026-05-07 19:32 | 33.34594 | -84.00830 | 7931 ft | 244 kts | 309° |
| 2026-05-07 19:32 | 33.35863 | -84.02204 | 7801 ft | 251 kts | 319° |
| 2026-05-07 19:32 | 33.37483 | -84.03068 | 7502 ft | 262 kts | 343° |
| 2026-05-07 19:33 | 33.39329 | -84.03155 | 7189 ft | 268 kts | 355° |
| 2026-05-07 19:33 | 33.41192 | -84.03035 | 6825 ft | 267 kts | 354° |
| 2026-05-07 19:33 | 33.43035 | -84.02993 | 6493 ft | 263 kts | 352° |
| 2026-05-07 19:33 | 33.44855 | -84.03033 | 6158 ft | 261 kts | 351° |
| 2026-05-07 19:34 | 33.46666 | -84.03092 | 5947 ft | 256 kts | 351° |
| 2026-05-07 19:34 | 33.48458 | -84.03149 | 5936 ft | 258 kts | 351° |
| 2026-05-07 19:34 | 33.50251 | -84.03214 | 5934 ft | 259 kts | 351° |
| 2026-05-07 19:34 | 33.52047 | -84.03284 | 5938 ft | 259 kts | 351° |
| 2026-05-07 19:35 | 33.53869 | -84.03361 | 5945 ft | 259 kts | 351° |
| 2026-05-07 19:35 | 33.55676 | -84.03446 | 5947 ft | 260 kts | 351° |
| 2026-05-07 19:35 | 33.57486 | -84.03527 | 5944 ft | 260 kts | 351° |
| 2026-05-07 19:35 | 33.59295 | -84.03597 | 5949 ft | 260 kts | 351° |
| 2026-05-07 19:36 | 33.61096 | -84.03657 | 5950 ft | 260 kts | 351° |
| 2026-05-07 19:36 | 33.62892 | -84.03716 | 5950 ft | 259 kts | 351° |
| 2026-05-07 19:36 | 33.64698 | -84.03849 | 5947 ft | 255 kts | 341° |
| 2026-05-07 19:36 | 33.66218 | -84.04745 | 5956 ft | 240 kts | 310° |
| 2026-05-07 19:37 | 33.67090 | -84.06405 | 5955 ft | 234 kts | 287° |
| 2026-05-07 19:37 | 33.67361 | -84.08287 | 5850 ft | 225 kts | 271° |
| 2026-05-07 19:37 | 33.67170 | -84.10097 | 5701 ft | 219 kts | 257° |
| 2026-05-07 19:37 | 33.66627 | -84.11777 | 5527 ft | 214 kts | 249° |
| 2026-05-07 19:38 | 33.66021 | -84.13365 | 5342 ft | 208 kts | 250° |
| 2026-05-07 19:38 | 33.65447 | -84.14936 | 5151 ft | 202 kts | 248° |
| 2026-05-07 19:38 | 33.64661 | -84.16347 | 4925 ft | 204 kts | 234° |
| 2026-05-07 19:38 | 33.63697 | -84.17577 | 4701 ft | 201 kts | 236° |
| 2026-05-07 19:39 | 33.63060 | -84.19002 | 4500 ft | 188 kts | 262° |
| 2026-05-07 19:39 | 33.63067 | -84.20503 | 4384 ft | 174 kts | 279° |
| 2026-05-07 19:39 | 33.63147 | -84.21910 | 4209 ft | 172 kts | 271° |
| 2026-05-07 19:39 | 33.63157 | -84.23360 | 3990 ft | 174 kts | 272° |
| 2026-05-07 19:40 | 33.63161 | -84.24806 | 3752 ft | 174 kts | 272° |
| 2026-05-07 19:40 | 33.63163 | -84.26241 | 3520 ft | 171 kts | 272° |
| 2026-05-07 19:40 | 33.63168 | -84.27644 | 3299 ft | 165 kts | 272° |
| 2026-05-07 19:40 | 33.63168 | -84.29018 | 3071 ft | 163 kts | 272° |
| 2026-05-07 19:41 | 33.63171 | -84.30328 | 2845 ft | 154 kts | 272° |
| 2026-05-07 19:41 | 33.63170 | -84.31593 | 2655 ft | 148 kts | 274° |
| 2026-05-07 19:41 | 33.63175 | -84.32751 | 2457 ft | 138 kts | 274° |
| 2026-05-07 19:41 | 33.63173 | -84.33908 | 2294 ft | 137 kts | 274° |
| 2026-05-07 19:42 | 33.63176 | -84.35066 | 2123 ft | 137 kts | 274° |
| 2026-05-07 19:42 | 33.63182 | -84.36211 | 1902 ft | 137 kts | 275° |
| 2026-05-07 19:42 | 33.63178 | -84.37368 | 1754 ft | 142 kts | 273° |
| 2026-05-07 19:42 | 33.63179 | -84.38538 | 1557 ft | 140 kts | 275° |
| 2026-05-07 19:43 | 33.63179 | -84.39711 | 1367 ft | 138 kts | 275° |
| 2026-05-07 19:43 | 33.63185 | -84.40852 | 1191 ft | 137 kts | 274° |
| 2026-05-07 19:43 | 33.63179 | -84.42012 | 1008 ft | 140 kts | 275° |
| 2026-05-07 19:43 | 33.63184 | -84.43073 | 1004 ft | 116 kts | 274° |
| 2026-05-07 19:44 | 33.63185 | -84.43855 | 1012 ft | 67 kts | 269° |
| 2026-05-07 19:44 | 33.63238 | -84.44209 | 1019 ft | 30 kts | 303° |
| 2026-05-07 19:44 | 33.63268 | -84.44256 | 1019 ft | 0 kts | 313° |
| 2026-05-07 19:45 | 33.63282 | -84.44265 | 1020 ft | 4 kts | 340° |
| 2026-05-07 19:46 | 33.63331 | -84.44257 | 1019 ft | 3 kts | 32° |
| 2026-05-07 19:46 | 33.63388 | -84.44213 | 1019 ft | 15 kts | 30° |
| 2026-05-07 19:46 | 33.63515 | -84.44196 | 1021 ft | 20 kts | 359° |
| 2026-05-07 19:46 | 33.63641 | -84.44169 | 1021 ft | 18 kts | 51° |
| 2026-05-07 19:47 | 33.63665 | -84.43952 | 1017 ft | 34 kts | 89° |
| 2026-05-07 19:47 | 33.63666 | -84.43658 | 1014 ft | 33 kts | 91° |
| 2026-05-07 19:47 | 33.63665 | -84.43375 | 1011 ft | 35 kts | 89° |
| 2026-05-07 19:47 | 33.63673 | -84.43112 | 1008 ft | 23 kts | 61° |
| 2026-05-07 19:48 | 33.63802 | -84.43068 | 1008 ft | 18 kts | 358° |
| 2026-05-07 19:48 | 33.63922 | -84.43070 | 1008 ft | 16 kts | 1° |
| 2026-05-07 19:48 | 33.64035 | -84.43063 | 1008 ft | 15 kts | 1° |
| 2026-05-07 19:48 | 33.64141 | -84.43065 | 1008 ft | 11 kts | 1° |
| 2026-05-07 19:49 | 33.64181 | -84.43025 | 1008 ft | 4 kts | 82° |
| 2026-05-07 19:49 | 33.64180 | -84.42992 | 1008 ft | 0 kts | 92° |